Time;durP1;ratioP1;P1;durP2;ratioP2;P2;SDS_P1;SDS_P2;PMS_P1;PMS_P2;Temp;Humidity;BMP_temperature;BMP_pressure;BME280_temperature;BME280_humidity;BME280_pressure;Samples;Min_cycle;Max_cycle;Signal;HPM_P1;HPM_P2
2022/04/29 00:01:21;;;;;;;8.93;7.55;;;;;;;10.84;85.37;101264.47;5110582;28;20030;-65
2022/04/29 00:03:47;;;;;;;9.93;7.00;;;;;;;10.86;84.83;101275.94;5092758;28;20026;-64
2022/04/29 00:06:14;;;;;;;11.75;7.60;;;;;;;10.76;85.10;101258.81;5110625;28;20464;-64
2022/04/29 00:08:39;;;;;;;9.23;5.93;;;;;;;10.71;84.82;101257.44;5110925;28;20080;-64
2022/04/29 00:11:06;;;;;;;9.45;6.78;;;;;;;10.75;84.18;101262.47;5110456;28;20035;-65
2022/04/29 00:13:32;;;;;;;7.93;6.53;;;;;;;10.74;84.11;101271.47;5092385;28;20591;-65
2022/04/29 00:15:58;;;;;;;8.13;6.15;;;;;;;10.71;83.70;101270.88;5092133;28;20415;-64
2022/04/29 00:18:24;;;;;;;9.10;6.32;;;;;;;10.72;83.55;101273.44;5092295;28;20031;-64
2022/04/29 00:20:49;;;;;;;7.95;5.53;;;;;;;10.63;82.62;101268.75;5110682;28;20372;-64
2022/04/29 00:23:15;;;;;;;7.88;5.43;;;;;;;10.68;81.98;101281.81;5110439;28;20538;-64
2022/04/29 00:25:40;;;;;;;7.70;5.85;;;;;;;10.71;82.04;101289.66;5092134;28;20028;-64
2022/04/29 00:28:07;;;;;;;9.73;6.30;;;;;;;10.66;83.06;101284.63;5110242;28;20025;-64
2022/04/29 00:30:33;;;;;;;9.10;6.35;;;;;;;10.62;81.97;101291.19;5110350;28;20028;-65
2022/04/29 00:32:59;;;;;;;8.43;6.10;;;;;;;10.53;81.44;101277.56;5110308;28;20019;-64
2022/04/29 00:35:25;;;;;;;13.30;7.47;;;;;;;10.56;80.57;101288.94;5109958;28;20448;-64
2022/04/29 00:37:53;;;;;;;8.98;6.20;;;;;;;10.47;80.72;101270.81;5110303;28;20026;-64
2022/04/29 00:40:24;;;;;;;8.55;6.07;;;;;;;10.46;80.78;101274.47;5092046;28;20448;-64
2022/04/29 00:42:50;;;;;;;11.05;6.40;;;;;;;10.44;81.46;101276.41;5110559;28;20035;-64
2022/04/29 00:45:18;;;;;;;7.72;5.80;;;;;;;10.38;81.36;101268.78;5110370;28;20129;-64
2022/04/29 00:47:44;;;;;;;9.32;6.53;;;;;;;10.46;82.08;101285.19;5110561;28;20442;-64
2022/04/29 00:50:12;;;;;;;9.27;5.70;;;;;;;10.35;81.14;101270.84;5109775;28;20025;-64
2022/04/29 00:52:41;;;;;;;10.00;7.13;;;;;;;10.39;82.13;101281.25;5109922;28;20039;-64
2022/04/29 00:55:10;;;;;;;9.40;6.40;;;;;;;10.35;82.27;101273.53;5109783;28;20528;-64
2022/04/29 00:57:47;;;;;;;11.10;6.50;;;;;;;10.34;81.99;101288.75;5109773;28;20539;-64
2022/04/29 01:00:18;;;;;;;9.77;6.53;;;;;;;10.31;82.28;101280.94;5109815;28;20031;-64
2022/04/29 01:02:47;;;;;;;8.38;6.95;;;;;;;10.30;82.76;101281.91;5110157;28;20031;-65
2022/04/29 01:05:15;;;;;;;8.90;6.40;;;;;;;10.22;83.43;101275.38;5109573;28;20479;-65
2022/04/29 01:07:42;;;;;;;10.77;6.90;;;;;;;10.22;82.59;101276.22;5109870;28;20027;-64
2022/04/29 01:10:10;;;;;;;8.88;6.40;;;;;;;10.20;83.44;101278.16;5109592;28;20034;-64
2022/04/29 01:12:38;;;;;;;9.60;5.93;;;;;;;10.13;83.00;101268.81;5109720;28;20051;-64
2022/04/29 01:15:07;;;;;;;9.88;5.95;;;;;;;10.01;82.52;101256.28;5109492;28;20044;-64
2022/04/29 01:17:35;;;;;;;10.80;6.70;;;;;;;10.10;83.32;101276.25;5109577;28;20027;-64
2022/04/29 01:20:14;;;;;;;9.77;6.38;;;;;;;10.05;82.75;101281.00;5109342;28;20028;-64
2022/04/29 01:22:40;;;;;;;8.63;6.15;;;;;;;10.01;82.50;101285.75;5091399;28;20040;-64
2022/04/29 01:25:06;;;;;;;8.45;6.28;;;;;;;9.94;82.75;101267.53;5109786;28;20034;-64
2022/04/29 01:27:31;;;;;;;10.35;6.65;;;;;;;9.95;83.04;101275.47;5091198;28;20089;-64
2022/04/29 01:30:17;;;;;;;9.55;6.88;;;;;;;9.91;83.34;101273.09;5109694;28;20023;-65
2022/04/29 01:32:43;;;;;;;10.52;6.10;;;;;;;9.92;84.03;101273.00;5108846;28;20071;-65
2022/04/29 01:35:10;;;;;;;18.23;6.90;;;;;;;9.88;84.42;101273.31;5109377;28;20078;-64
2022/04/29 01:37:37;;;;;;;13.80;6.97;;;;;;;9.82;83.23;101269.25;5109564;28;20027;-65
2022/04/29 01:40:07;;;;;;;8.68;6.50;;;;;;;9.73;82.76;101252.94;5109538;28;20031;-65
2022/04/29 01:42:33;;;;;;;13.10;7.15;;;;;;;9.74;83.84;101258.19;5109531;28;20031;-64
2022/04/29 01:44:59;;;;;;;9.63;6.75;;;;;;;9.74;83.35;101258.19;5109394;28;20031;-64
2022/04/29 01:47:24;;;;;;;8.70;6.10;;;;;;;9.66;83.88;101247.16;5109417;28;20035;-64
2022/04/29 01:49:50;;;;;;;10.18;6.00;;;;;;;9.73;84.48;101260.97;5109173;28;20035;-64
2022/04/29 01:52:16;;;;;;;9.57;6.38;;;;;;;9.71;84.63;101274.50;5109077;28;20104;-64
2022/04/29 01:54:41;;;;;;;8.73;6.20;;;;;;;9.66;85.32;101259.69;5109659;28;20024;-64
2022/04/29 01:57:07;;;;;;;8.77;6.65;;;;;;;9.64;84.58;101267.00;5109446;28;20062;-64
2022/04/29 01:59:35;;;;;;;8.45;6.30;;;;;;;9.57;85.05;101255.81;5090241;28;20143;-64
2022/04/29 02:02:02;;;;;;;9.10;6.13;;;;;;;9.47;83.83;101257.41;5110089;28;20032;-64
2022/04/29 02:04:28;;;;;;;7.47;6.00;;;;;;;9.51;83.09;101268.78;5110998;28;20024;-64
2022/04/29 02:06:53;;;;;;;9.13;6.05;;;;;;;9.49;82.70;101265.34;5113190;28;20464;-64
2022/04/29 02:09:19;;;;;;;10.75;6.50;;;;;;;9.47;83.33;101276.16;5112923;28;20020;-65
2022/04/29 02:12:03;;;;;;;8.25;6.05;;;;;;;9.42;83.15;101275.63;5113026;28;20106;-64
2022/04/29 02:14:30;;;;;;;9.98;6.25;;;;;;;9.37;83.37;101266.16;5109714;28;20039;-64
2022/04/29 02:16:55;;;;;;;9.82;5.95;;;;;;;9.32;83.75;101249.59;5094203;28;20043;-64
2022/04/29 02:19:22;;;;;;;8.02;5.95;;;;;;;9.37;83.54;101266.16;5112450;28;20032;-64
2022/04/29 02:21:48;;;;;;;7.38;5.68;;;;;;;9.18;83.80;101231.78;5094417;28;20030;-64
2022/04/29 02:24:13;;;;;;;9.73;6.05;;;;;;;9.32;83.86;101254.94;5093791;28;20111;-64
2022/04/29 02:26:39;;;;;;;10.00;6.20;;;;;;;9.30;83.39;101255.03;5112050;28;20464;-64
2022/04/29 02:29:04;;;;;;;11.07;6.53;;;;;;;9.25;84.24;101252.66;5112788;28;20452;-64
2022/04/29 02:31:30;;;;;;;7.43;5.88;;;;;;;9.21;83.54;101255.66;5094022;28;20027;-64
2022/04/29 02:33:55;;;;;;;8.18;5.75;;;;;;;9.21;83.45;101258.31;5094551;28;20114;-64
2022/04/29 02:36:21;;;;;;;9.32;6.38;;;;;;;9.15;83.79;101256.06;5112550;28;20124;-64
2022/04/29 02:38:46;;;;;;;10.32;6.30;;;;;;;9.06;84.50;101238.81;5112462;28;20028;-64
2022/04/29 02:41:12;;;;;;;6.72;5.95;;;;;;;9.10;84.82;101259.03;5112366;28;20050;-64
2022/04/29 02:43:38;;;;;;;6.80;5.45;;;;;;;8.97;85.28;101243.94;5094053;28;20043;-64
2022/04/29 02:46:04;;;;;;;7.65;5.88;;;;;;;8.96;84.55;101239.50;5112229;28;20027;-64
2022/04/29 02:48:29;;;;;;;9.82;5.85;;;;;;;9.00;84.56;101260.63;5112160;28;20368;-64
2022/04/29 02:50:54;;;;;;;9.65;6.00;;;;;;;8.87;84.71;101238.31;5093887;28;20504;-64
2022/04/29 02:53:20;;;;;;;8.85;5.68;;;;;;;8.95;84.28;101257.41;5093280;28;20084;-65
2022/04/29 02:55:45;;;;;;;8.00;5.47;;;;;;;8.93;85.14;101261.13;5112744;28;20028;-65
2022/04/29 02:58:12;;;;;;;10.60;5.97;;;;;;;8.90;84.88;101259.50;5112903;28;20076;-65
2022/04/29 03:00:38;;;;;;;8.80;5.53;;;;;;;8.84;84.45;101253.72;5112865;28;20047;-65
2022/04/29 03:03:03;;;;;;;11.98;7.18;;;;;;;8.85;85.05;101266.13;5112907;28;20535;-65
2022/04/29 03:05:29;;;;;;;11.60;6.15;;;;;;;8.84;85.20;101265.25;5112840;28;20118;-65
2022/04/29 03:07:54;;;;;;;8.05;6.07;;;;;;;8.77;85.24;101257.75;5112926;28;20027;-65
2022/04/29 03:10:20;;;;;;;6.68;5.55;;;;;;;8.68;85.11;101250.34;5093415;28;20034;-66
2022/04/29 03:12:45;;;;;;;8.85;6.10;;;;;;;8.73;85.62;101256.22;5112232;28;20036;-66
2022/04/29 03:15:17;;;;;;;8.48;5.80;;;;;;;8.77;86.40;101261.28;5111656;28;20044;-66
2022/04/29 03:20:28;;;;;;;7.65;5.57;;;;;;;8.72;85.93;101263.41;5112141;28;20043;-64
2022/04/29 03:22:53;;;;;;;11.15;6.38;;;;;;;8.69;86.14;101260.06;5093399;28;20019;-65
2022/04/29 03:25:19;;;;;;;9.40;5.88;;;;;;;8.68;86.60;101261.03;5112206;28;20028;-66
2022/04/29 03:27:45;;;;;;;7.75;5.80;;;;;;;8.60;86.73;101249.97;5112212;28;20038;-64
2022/04/29 03:30:11;;;;;;;11.27;6.55;;;;;;;8.66;86.84;101271.81;5111846;28;20016;-64
2022/04/29 03:32:36;;;;;;;10.45;6.18;;;;;;;8.51;86.46;101242.53;5111841;28;20046;-66
2022/04/29 03:35:02;;;;;;;9.30;6.65;;;;;;;8.56;86.82;101253.78;5093358;28;20024;-66
2022/04/29 03:37:27;;;;;;;11.10;5.97;;;;;;;8.59;87.18;101266.97;5111821;28;20031;-66
2022/04/29 03:39:53;;;;;;;9.35;6.45;;;;;;;8.56;86.34;101267.16;5111327;28;20027;-66
2022/04/29 03:42:19;;;;;;;12.00;6.65;;;;;;;8.55;86.08;101268.97;5111536;28;20031;-69
2022/04/29 03:44:45;;;;;;;11.60;6.40;;;;;;;8.54;86.75;101275.28;5112059;28;20510;-70
2022/04/29 03:47:10;;;;;;;9.30;6.72;;;;;;;8.52;86.27;101274.50;5111429;28;20031;-69
2022/04/29 03:49:36;;;;;;;8.30;6.30;;;;;;;8.45;86.22;101275.88;5111382;28;20030;-69
2022/04/29 03:52:02;;;;;;;10.88;6.03;;;;;;;8.47;86.22;101283.78;5110781;28;20031;-69
2022/04/29 03:54:28;;;;;;;15.80;7.30;;;;;;;8.51;86.29;101287.97;5111607;28;20383;-70
2022/04/29 03:56:53;;;;;;;10.68;7.00;;;;;;;8.49;86.97;101290.78;5111478;28;20028;-69
2022/04/29 03:59:19;;;;;;;9.32;6.05;;;;;;;8.51;87.20;101294.19;5110833;28;20023;-70
2022/04/29 04:01:45;;;;;;;10.93;6.30;;;;;;;8.45;87.86;101278.53;5092744;28;20043;-68
2022/04/29 04:04:11;;;;;;;8.90;6.15;;;;;;;8.44;87.63;101282.19;5106001;28;20027;-68
2022/04/29 04:06:51;;;;;;;10.52;6.47;;;;;;;8.46;88.36;101287.44;5106573;28;20160;-69
2022/04/29 04:09:20;;;;;;;10.63;6.80;;;;;;;8.44;89.02;101279.50;5111634;28;20425;-70
2022/04/29 04:11:45;;;;;;;11.10;5.70;;;;;;;8.57;89.88;101295.59;5110845;28;20118;-69
2022/04/29 04:14:11;;;;;;;14.35;6.63;;;;;;;8.57;89.79;101295.59;5092638;28;20118;-69
2022/04/29 04:16:37;;;;;;;12.07;7.15;;;;;;;8.60;90.65;101295.41;5111087;28;20062;-69
2022/04/29 04:19:04;;;;;;;10.30;6.40;;;;;;;8.60;91.01;101287.38;5110263;28;20023;-70
2022/04/29 04:21:31;;;;;;;10.57;7.43;;;;;;;8.63;90.88;101293.41;5108145;28;20384;-69
2022/04/29 04:23:56;;;;;;;13.60;7.38;;;;;;;8.71;91.76;101298.28;5110056;28;20039;-70
2022/04/29 04:26:23;;;;;;;14.32;7.05;;;;;;;8.75;92.37;101294.44;5109919;28;20084;-69
2022/04/29 04:28:48;;;;;;;13.77;7.15;;;;;;;8.70;92.18;101281.34;5092074;28;20110;-69
2022/04/29 04:31:14;;;;;;;13.52;7.10;;;;;;;8.87;92.77;101289.13;5091800;28;20122;-68
2022/04/29 04:33:40;;;;;;;14.73;7.25;;;;;;;8.90;93.33;101293.44;5109877;28;20089;-70
2022/04/29 04:36:05;;;;;;;11.02;7.00;;;;;;;8.97;93.16;101289.41;5110052;28;20115;-69
2022/04/29 04:38:32;;;;;;;18.38;8.00;;;;;;;9.09;93.56;101304.63;5109425;28;20124;-69
2022/04/29 04:40:58;;;;;;;12.93;7.15;;;;;;;9.16;92.79;101312.16;5110387;28;20031;-70
2022/04/29 04:43:24;;;;;;;10.55;6.20;;;;;;;9.25;93.16;101311.56;5109948;28;20344;-70
2022/04/29 04:45:53;;;;;;;8.88;6.18;;;;;;;9.39;91.91;101312.44;5110014;28;20050;-69
2022/04/29 04:48:19;;;;;;;10.75;6.25;;;;;;;9.46;91.65;101303.03;5109724;28;20031;-69
2022/04/29 04:50:44;;;;;;;6.22;5.22;;;;;;;9.60;90.46;101319.03;5110047;28;20050;-70
2022/04/29 04:53:10;;;;;;;5.75;5.10;;;;;;;9.80;90.09;101321.22;5109609;28;20039;-71
2022/04/29 04:55:39;;;;;;;9.10;6.07;;;;;;;10.01;89.13;101317.91;5109752;28;20027;-71
2022/04/29 04:58:05;;;;;;;8.10;5.45;;;;;;;10.23;87.44;101315.50;5109483;28;20035;-70
2022/04/29 05:00:30;;;;;;;7.93;5.68;;;;;;;10.47;85.43;101304.81;5110104;28;20039;-71
2022/04/29 05:02:56;;;;;;;9.02;5.60;;;;;;;10.79;83.38;101317.63;5109895;28;20034;-70
2022/04/29 05:05:21;;;;;;;7.78;5.20;;;;;;;11.01;80.26;101311.53;5109448;28;20368;-71
2022/04/29 05:07:47;;;;;;;7.38;4.95;;;;;;;11.18;77.98;101287.84;5110061;28;20122;-71
2022/04/29 05:10:13;;;;;;;7.15;4.50;;;;;;;11.49;76.75;101295.28;5109856;28;20058;-71
2022/04/29 05:12:43;;;;;;;10.45;5.40;;;;;;;11.83;75.22;101312.41;5110001;28;20472;-71
2022/04/29 05:15:09;;;;;;;9.85;5.10;;;;;;;12.04;73.27;101312.56;5109306;28;20063;-72
2022/04/29 05:17:35;;;;;;;5.82;4.97;;;;;;;12.20;72.79;101305.88;5109527;28;20717;-69
2022/04/29 05:20:01;;;;;;;7.85;4.97;;;;;;;12.35;71.00;101311.88;5092180;28;20134;-71
2022/04/29 05:22:29;;;;;;;8.30;4.57;;;;;;;12.47;70.81;101302.81;5110493;28;20023;-70
2022/04/29 05:24:56;;;;;;;6.75;5.13;;;;;;;12.57;70.97;101310.03;5110528;28;20111;-71
2022/04/29 05:27:22;;;;;;;7.30;4.60;;;;;;;12.66;70.63;101306.59;5110528;28;20019;-71
2022/04/29 05:29:47;;;;;;;7.75;4.47;;;;;;;12.77;70.57;101305.75;5110427;28;20035;-71
2022/04/29 05:32:13;;;;;;;6.05;4.22;;;;;;;12.93;68.91;101314.28;5110236;28;20031;-70
2022/04/29 05:34:38;;;;;;;6.78;4.05;;;;;;;12.95;69.38;101299.72;5110833;28;20031;-71
2022/04/29 05:37:04;;;;;;;5.88;4.07;;;;;;;13.15;69.22;101308.84;5112050;28;20336;-71
2022/04/29 05:42:21;;;;;;;5.25;3.70;;;;;;;13.45;66.07;101309.84;5113841;28;20059;-71
2022/04/29 05:44:47;;;;;;;9.75;4.15;;;;;;;13.56;66.90;101311.66;5114959;28;20467;-70
2022/04/29 05:47:13;;;;;;;5.50;3.88;;;;;;;13.67;66.47;101307.06;5096196;28;20047;-71
2022/04/29 05:49:38;;;;;;;4.63;3.60;;;;;;;13.72;66.28;101298.59;5114136;28;20479;-73
2022/04/29 05:52:06;;;;;;;4.35;3.50;;;;;;;13.95;64.40;101308.25;5113998;28;20476;-72
2022/04/29 05:54:32;;;;;;;4.80;3.67;;;;;;;14.14;64.45;101318.28;5113863;28;20148;-72
2022/04/29 05:57:01;;;;;;;5.80;3.72;;;;;;;14.23;65.43;101299.50;5114171;28;20020;-71
2022/04/29 05:59:27;;;;;;;4.57;3.42;;;;;;;14.47;64.87;101318.94;5114108;28;20027;-71
2022/04/29 06:01:53;;;;;;;4.57;3.75;;;;;;;14.63;65.00;101315.72;5114505;28;20367;-71
2022/04/29 06:04:19;;;;;;;6.25;3.75;;;;;;;14.64;64.76;101290.47;5112655;28;20031;-72
2022/04/29 06:06:44;;;;;;;5.97;3.03;;;;;;;14.92;64.97;101313.97;5112609;28;20460;-72
2022/04/29 06:09:10;;;;;;;5.13;3.50;;;;;;;15.09;62.51;101321.44;5113501;28;20441;-73
2022/04/29 06:11:36;;;;;;;5.07;2.95;;;;;;;15.18;60.65;101307.06;5115220;28;20913;-73
2022/04/29 06:14:01;;;;;;;4.40;3.03;;;;;;;15.44;59.41;101325.34;5114417;28;20049;-73
2022/04/29 06:16:27;;;;;;;6.80;3.35;;;;;;;15.53;58.31;101305.56;5095570;28;20043;-73
2022/04/29 06:18:52;;;;;;;4.68;3.15;;;;;;;15.74;54.72;101311.66;5095010;28;20391;-72
2022/04/29 06:21:18;;;;;;;6.72;3.53;;;;;;;15.87;55.98;101317.63;5114189;28;20042;-73
2022/04/29 06:23:44;;;;;;;3.28;2.97;;;;;;;15.96;55.88;101304.25;5114616;28;20081;-73
2022/04/29 06:26:10;;;;;;;4.20;3.15;;;;;;;16.20;55.28;101315.44;5095381;28;20038;-73
2022/04/29 06:28:36;;;;;;;5.00;3.47;;;;;;;16.18;54.20;101304.75;5114439;28;20031;-73
2022/04/29 06:31:02;;;;;;;7.05;3.42;;;;;;;16.28;54.37;101312.88;5113889;28;20024;-72
2022/04/29 06:33:31;;;;;;;4.18;2.70;;;;;;;16.46;53.91;101313.84;5113548;28;20042;-72
2022/04/29 06:35:57;;;;;;;5.50;3.85;;;;;;;16.67;54.69;101328.03;5093154;28;20016;-72
2022/04/29 06:38:22;;;;;;;5.25;3.72;;;;;;;16.76;53.48;101314.41;5113838;28;20365;-72
2022/04/29 06:40:48;;;;;;;6.72;3.53;;;;;;;16.85;52.74;101327.06;5095224;28;20028;-73
2022/04/29 06:43:13;;;;;;;3.90;3.10;;;;;;;16.89;51.31;101308.63;5095351;28;20039;-66
2022/04/29 06:45:39;;;;;;;6.75;3.33;;;;;;;17.04;51.40;101326.09;5112509;28;20039;-66
2022/04/29 06:48:05;;;;;;;5.55;3.60;;;;;;;17.13;51.22;101319.78;5112105;28;20118;-66
2022/04/29 06:50:31;;;;;;;6.15;3.63;;;;;;;17.22;51.01;101316.16;5093992;28;20028;-66
2022/04/29 06:52:57;;;;;;;6.20;3.35;;;;;;;17.35;51.58;101316.63;5113006;28;20372;-67
2022/04/29 06:55:23;;;;;;;8.40;3.80;;;;;;;17.37;50.69;101329.03;5112093;28;20053;-65
2022/04/29 06:57:49;;;;;;;3.70;3.13;;;;;;;17.43;49.43;101314.03;5113829;28;20023;-73
2022/04/29 07:00:15;;;;;;;5.72;3.45;;;;;;;17.46;48.49;101328.16;5113255;28;20539;-72
2022/04/29 07:02:41;;;;;;;5.78;4.13;;;;;;;17.41;48.45;101308.72;5113787;28;20421;-73
2022/04/29 07:05:08;;;;;;;5.05;2.75;;;;;;;17.45;49.21;101302.00;5113584;28;20027;-73
2022/04/29 07:07:34;;;;;;;4.30;3.20;;;;;;;17.53;47.29;101321.09;5113494;28;20427;-73
2022/04/29 07:09:59;;;;;;;3.97;3.05;;;;;;;17.60;48.25;101318.59;5114350;28;20063;-73
2022/04/29 07:12:24;;;;;;;6.13;3.42;;;;;;;17.53;47.23;101303.94;5113760;28;20040;-72
2022/04/29 07:14:53;;;;;;;4.10;3.00;;;;;;;17.59;47.41;101303.34;5113351;28;20023;-73
2022/04/29 07:17:20;;;;;;;3.97;2.95;;;;;;;17.70;48.08;101314.81;5095332;28;20039;-74
2022/04/29 07:19:46;;;;;;;6.28;3.38;;;;;;;17.77;48.22;101315.88;5095079;28;20426;-73
2022/04/29 07:22:12;;;;;;;8.88;3.58;;;;;;;17.85;47.54;101310.53;5113567;28;20110;-73
2022/04/29 07:24:38;;;;;;;5.68;3.13;;;;;;;17.99;48.70;101317.22;5113168;28;20071;-73
2022/04/29 07:27:03;;;;;;;3.80;3.10;;;;;;;18.08;46.97;101324.44;5112558;28;20016;-74
2022/04/29 07:29:29;;;;;;;7.85;3.55;;;;;;;18.13;45.58;101323.97;5112706;28;20069;-74
2022/04/29 07:31:54;;;;;;;5.72;3.10;;;;;;;18.08;45.48;101310.03;5112569;28;20030;-74
2022/04/29 07:41:44;;;;;;;6.65;3.53;;;;;;;18.20;46.35;101319.59;5112111;28;20027;-75
2022/04/29 07:42:36;;;;;;;4.65;3.20;;;;;;;18.38;45.98;101325.88;5111835;28;20047;-73
2022/04/29 07:45:02;;;;;;;6.88;3.22;;;;;;;18.43;45.73;101315.38;5093917;28;20483;-74
2022/04/29 07:47:27;;;;;;;4.93;3.45;;;;;;;18.45;45.96;101306.06;5112307;28;20031;-73
2022/04/29 07:49:53;;;;;;;6.68;3.17;;;;;;;18.57;45.54;101322.94;5094100;28;20016;-72
2022/04/29 07:52:18;;;;;;;5.60;3.17;;;;;;;18.67;46.43;101312.81;5112243;28;20123;-73
2022/04/29 07:54:44;;;;;;;4.75;3.35;;;;;;;18.73;45.56;101317.59;5094259;28;20027;-73
2022/04/29 07:57:09;;;;;;;4.47;3.13;;;;;;;18.82;46.70;101320.16;5112114;28;20380;-74
2022/04/29 07:59:35;;;;;;;5.28;3.13;;;;;;;18.88;45.89;101314.09;5111534;28;20083;-74
2022/04/29 08:02:01;;;;;;;5.80;3.55;;;;;;;18.95;46.49;101309.69;5093821;28;20469;-73
2022/04/29 08:04:26;;;;;;;4.30;2.88;;;;;;;18.96;45.20;101305.94;5111828;28;20034;-74
2022/04/29 08:06:52;;;;;;;6.90;2.90;;;;;;;19.05;45.05;101307.69;5111838;28;20111;-73
2022/04/29 08:09:17;;;;;;;5.88;3.40;;;;;;;18.95;44.98;101300.66;5111619;28;20111;-73
2022/04/29 08:11:43;;;;;;;4.15;3.67;;;;;;;19.12;45.50;101311.44;5111542;28;20031;-73
2022/04/29 08:14:09;;;;;;;5.15;3.05;;;;;;;19.19;44.87;101312.47;5112258;28;20110;-73
2022/04/29 08:16:35;;;;;;;4.88;3.38;;;;;;;19.29;44.48;101298.78;5110800;28;20092;-73
2022/04/29 08:19:01;;;;;;;8.68;3.60;;;;;;;19.38;45.04;101297.78;5093174;28;20487;-73
2022/04/29 08:21:26;;;;;;;7.03;3.35;;;;;;;19.58;44.47;101310.88;5093390;28;20019;-73
2022/04/29 08:23:52;;;;;;;3.22;2.85;;;;;;;19.66;42.63;101290.97;5111543;28;20055;-73
2022/04/29 08:26:17;;;;;;;8.98;2.67;;;;;;;19.79;42.54;101300.34;5111924;28;20481;-73
2022/04/29 08:28:43;;;;;;;4.68;2.65;;;;;;;20.01;41.51;101321.47;5111654;28;20023;-73
2022/04/29 08:31:09;;;;;;;6.75;2.92;;;;;;;20.18;41.15;101301.38;5093329;28;20759;-73
2022/04/29 08:33:40;;;;;;;5.15;3.00;;;;;;;20.46;40.09;101292.81;5111594;28;20750;-75
2022/04/29 08:36:06;;;;;;;11.07;3.08;;;;;;;20.64;40.82;101299.75;5111076;28;20379;-73
2022/04/29 08:38:32;;;;;;;5.18;3.10;;;;;;;20.73;40.40;101295.13;5111150;28;20024;-74
2022/04/29 08:41:00;;;;;;;77.97;6.93;;;;;;;20.60;41.10;101273.84;5111172;28;20026;-73
2022/04/29 08:43:26;;;;;;;3.72;2.50;;;;;;;20.74;41.30;101289.50;5092665;28;20429;-74
2022/04/29 08:45:52;;;;;;;4.45;2.88;;;;;;;20.69;41.29;101289.16;5110690;28;20024;-73
2022/04/29 08:48:18;;;;;;;5.80;2.75;;;;;;;20.70;40.51;101296.28;5110846;28;20494;-72
2022/04/29 08:50:44;;;;;;;3.40;2.83;;;;;;;20.68;40.26;101294.78;5111179;28;20841;-74
2022/04/29 08:53:10;;;;;;;4.53;2.83;;;;;;;20.66;40.44;101292.22;5108482;28;20039;-74
2022/04/29 08:58:38;;;;;;;7.53;2.80;;;;;;;20.44;40.46;101278.50;5109504;28;20092;-74
2022/04/29 09:01:20;;;;;;;9.27;3.42;;;;;;;20.48;41.18;101282.59;5092967;28;20028;-73
2022/04/29 09:03:46;;;;;;;4.22;2.90;;;;;;;20.39;41.08;101270.00;5111373;28;20027;-74
2022/04/29 09:06:12;;;;;;;6.10;3.15;;;;;;;20.39;41.53;101270.00;5111362;28;20027;-73
2022/04/29 09:08:42;;;;;;;5.88;2.63;;;;;;;20.49;41.13;101284.28;5111304;28;20670;-72
2022/04/29 09:11:09;;;;;;;5.07;3.58;;;;;;;20.44;41.97;101273.06;5093985;27;20355;-72
2022/04/29 09:13:40;;;;;;;6.95;3.10;;;;;;;20.40;41.35;101278.00;5112443;28;20031;-65
2022/04/29 09:16:14;;;;;;;5.65;2.80;;;;;;;20.28;40.56;101275.84;5116431;28;20422;-65
2022/04/29 09:18:40;;;;;;;5.68;2.72;;;;;;;20.23;40.51;101260.00;5116576;28;20036;-65
2022/04/29 09:21:12;;;;;;;4.18;2.30;;;;;;;20.31;40.38;101264.59;5097983;28;20087;-65
2022/04/29 09:23:42;;;;;;;3.50;2.63;;;;;;;20.28;41.27;101264.94;5116903;28;20031;-65
2022/04/29 09:26:19;;;;;;;4.45;2.70;;;;;;;20.29;40.71;101269.34;5116551;28;20019;-65
2022/04/29 09:28:45;;;;;;;3.40;2.92;;;;;;;20.15;40.69;101260.88;5116495;28;20058;-65
2022/04/29 09:31:10;;;;;;;3.28;2.70;;;;;;;20.20;40.68;101263.06;5116395;28;20027;-65
2022/04/29 09:33:37;;;;;;;5.95;3.00;;;;;;;20.13;40.88;101260.19;5116152;27;20028;-66
2022/04/29 09:36:03;;;;;;;4.28;2.70;;;;;;;20.22;41.63;101261.03;5116260;28;20380;-66
2022/04/29 09:41:24;;;;;;;7.70;3.28;;;;;;;20.16;42.69;101248.09;5116375;28;20034;-65
2022/04/29 09:43:50;;;;;;;4.32;2.67;;;;;;;20.21;42.32;101242.13;5115971;27;20031;-65
2022/04/29 09:46:15;;;;;;;4.70;3.05;;;;;;;20.21;42.81;101253.88;5115703;28;20111;-65
2022/04/29 09:48:54;;;;;;;5.53;2.92;;;;;;;20.13;40.63;101249.28;5097346;28;20041;-66
2022/04/29 09:51:39;;;;;;;5.00;3.25;;;;;;;20.16;40.80;101251.66;5115968;28;20467;-66
2022/04/29 09:54:12;;;;;;;4.93;3.00;;;;;;;20.18;41.24;101241.44;5097582;28;20038;-66
2022/04/29 09:56:38;;;;;;;5.20;3.00;;;;;;;20.21;42.12;101244.88;5116169;28;20550;-65
2022/04/29 09:59:06;;;;;;;5.03;3.08;;;;;;;20.16;42.35;101251.66;5116015;28;20036;-65
2022/04/29 10:01:32;;;;;;;6.82;2.88;;;;;;;20.13;42.29;101237.56;5097615;28;20034;-65
2022/04/29 10:04:01;;;;;;;4.05;2.85;;;;;;;20.04;42.31;101222.22;5113495;28;20024;-66
2022/04/29 10:06:29;;;;;;;5.30;3.00;;;;;;;20.13;41.58;101237.56;5115630;28;20042;-65
2022/04/29 10:08:58;;;;;;;3.95;2.28;;;;;;;20.25;42.09;101235.31;5116254;28;20059;-65
2022/04/29 10:11:26;;;;;;;2.83;2.25;;;;;;;20.30;42.41;101244.66;5097216;28;20035;-65
2022/04/29 10:13:52;;;;;;;3.67;2.35;;;;;;;20.19;42.00;101232.25;5116273;28;20027;-65
2022/04/29 10:16:19;;;;;;;3.10;2.47;;;;;;;20.25;42.00;101246.22;5115585;28;20568;-65
2022/04/29 10:21:46;;;;;;;5.60;2.67;;;;;;;20.24;40.23;101234.44;5115529;28;20108;-65
2022/04/29 10:24:12;;;;;;;2.58;2.20;;;;;;;20.28;40.19;101214.00;5111972;28;20114;-65
2022/04/29 10:26:38;;;;;;;5.53;2.70;;;;;;;20.31;41.22;101219.09;5094576;28;20084;-65
2022/04/29 10:29:04;;;;;;;5.10;2.33;;;;;;;20.29;41.39;101206.69;5094207;28;20043;-65
2022/04/29 10:31:30;;;;;;;7.72;2.33;;;;;;;20.31;41.47;101224.53;5112713;28;20037;-66
2022/04/29 10:34:28;;;;;;;7.00;2.20;;;;;;;20.37;40.37;101226.56;5094282;28;20024;-65
2022/04/29 10:36:54;;;;;;;4.45;2.33;;;;;;;20.37;40.15;101201.22;5112571;28;20032;-66
2022/04/29 10:39:21;;;;;;;4.85;2.28;;;;;;;20.41;40.43;101216.19;5112195;28;20034;-65
2022/04/29 10:42:09;;;;;;;4.78;2.47;;;;;;;20.29;39.71;101198.50;5112266;28;20066;-65
2022/04/29 10:44:59;;;;;;;3.97;2.30;;;;;;;20.34;39.25;101215.19;5112166;28;20027;-66
2022/04/29 10:47:40;;;;;;;4.05;2.05;;;;;;;20.26;39.40;101207.03;5112073;28;20023;-66
2022/04/29 10:50:31;;;;;;;3.85;2.22;;;;;;;20.37;39.62;101207.50;5112081;28;20027;-67
2022/04/29 10:53:02;;;;;;;6.03;2.30;;;;;;;20.30;39.09;101203.78;5093820;28;20067;-66
2022/04/29 10:55:28;;;;;;;2.67;1.92;;;;;;;20.28;39.05;101192.19;5111941;28;20023;-66
2022/04/29 10:57:57;;;;;;;5.10;2.30;;;;;;;20.34;39.62;101198.84;5112256;28;20028;-67
2022/04/29 11:00:24;;;;;;;2.78;1.92;;;;;;;20.38;40.93;101195.59;5093666;28;20028;-67
2022/04/29 11:02:49;;;;;;;2.67;1.98;;;;;;;20.33;41.04;101184.34;5112260;28;20123;-66
2022/04/29 11:05:40;;;;;;;5.55;2.33;;;;;;;20.49;39.99;101195.19;5111859;28;20103;-67
2022/04/29 11:08:08;;;;;;;13.05;3.10;;;;;;;20.56;39.15;101178.97;5111937;28;20035;-66
2022/04/29 11:11:03;;;;;;;9.95;2.40;;;;;;;20.64;39.95;101189.84;5093803;28;20394;-67
2022/04/29 11:13:33;;;;;;;3.00;1.75;;;;;;;20.61;39.86;101177.41;5089951;28;20039;-67
2022/04/29 11:16:25;;;;;;;5.22;2.13;;;;;;;20.46;38.18;101181.06;5111932;28;20047;-67
2022/04/29 11:19:23;;;;;;;3.20;1.92;;;;;;;20.44;37.78;101172.22;5106532;28;20679;-66
2022/04/29 11:24:47;;;;;;;3.75;2.05;;;;;;;20.38;38.13;101179.25;5112101;28;20042;-66
2022/04/29 11:27:12;;;;;;;2.53;1.80;;;;;;;20.41;38.45;101178.03;5111656;28;20024;-67
2022/04/29 11:29:45;;;;;;;2.80;1.80;;;;;;;20.34;37.45;101163.41;5111689;28;20081;-67
2022/04/29 11:32:12;;;;;;;8.60;2.55;;;;;;;20.39;37.74;101163.72;5111507;28;20024;-66
2022/04/29 11:34:54;;;;;;;3.33;1.80;;;;;;;20.44;37.19;101159.44;5091789;28;20134;-67
2022/04/29 11:37:27;;;;;;;3.50;1.85;;;;;;;20.49;38.40;101158.91;5109560;28;20027;-67
2022/04/29 11:40:01;;;;;;;2.30;1.67;;;;;;;20.55;37.75;101169.09;5093232;28;20023;-67
2022/04/29 11:42:26;;;;;;;4.00;1.73;;;;;;;20.39;35.52;101145.50;5111137;28;20264;-67
2022/04/29 11:44:52;;;;;;;4.25;1.70;;;;;;;20.47;35.21;101164.53;5092959;28;20031;-67
2022/04/29 11:47:24;;;;;;;4.15;2.08;;;;;;;20.52;36.28;101167.56;5111334;28;20027;-67
2022/04/29 11:50:03;;;;;;;3.58;1.80;;;;;;;20.37;36.38;101155.72;5111154;28;20043;-66
2022/04/29 11:52:44;;;;;;;2.67;1.67;;;;;;;20.27;36.57;101137.88;5111353;28;20042;-69